Airport View

Enter AWOS ICAO identifier for current METAR.

ex. KFNL

KPOF 202353Z AUTO 00000KT 10SM CLR 24/21 A3010 RMK AO2 SLP188 60026 T02440211 10272 20239 53003

21 Sep 2019 00:25

Frequency: 124.225

Phone: 573-778-9172

Other Area AWOS: KMAW - K4M9 - KTKX - KSIK

TAF AMD KCGI 202254Z 2023/2118 VRB05KT 4SM SHRA VCTS SCT025CB BKN035 TEMPO 2023/2024 VRB15G25KT 1SM +TSRA BKN025CB FM210100 17006KT P6SM FEW060 SCT250